New Orleans, LA

11:30 AM CDT on August 30, 2014 (GMT -0500)
New Orleans International | Change Station
CLOSE
Current Station
Airport
Location: New Orleans,
Elevation: 3 ft
Nearby Weather Stations

Elev 3 ft 29.99 °N, 90.25 °W | Updated 37 minutes ago

Light Rain
Light Rain
77 °F
Feels Like 77 °F
N
12
Wind Variable Wind from South

Today
High -- | Low -- °F
--% Chance of Precip.
Yesterday
High -- | Low -- °F
Precip. -- in
6:36 AM 7:25 PM
Waxing Crescent, 23% visible
Pressure 30.04 in
Visibility 6.0 miles
Clouds Mostly Cloudy 4500 ft
Mostly Cloudy 7000 ft
Mostly Cloudy 15000 ft
Mostly Cloudy 25000 ft
Dew Point 72 °F
Humidity 84%
Rainfall 0.22 in
Snow Depth Not available.
UV 5 out of 12
Pollen 5.40 out of 12
Ozone Good
PM2.5 Good
Flu Activity Not available.
METAR KMSY 301553Z 17010KT 6SM -RA BKN045CB BKN070 BKN150 BKN250 25/22 A3003 RMK AO2 PK WND 21029/1529 SLP172 CB ALQDS MOV N P0022 T02500222

More Conditions Fewer Conditions

Pressure 30.04 in
Visibility 6.0 miles
Clouds Mostly Cloudy 4500 ft
Mostly Cloudy 7000 ft
Mostly Cloudy 15000 ft
Mostly Cloudy 25000 ft
Dew Point 72 °F
Humidity 84%
Rainfall 0.22 in
Snow Depth Not available.
UV 5 out of 12
Pollen 5.40 out of 12
Ozone Good
PM2.5 Good
Flu Activity Not available.
METAR KMSY 301553Z 17010KT 6SM -RA BKN045CB BKN070 BKN150 BKN250 25/22 A3003 RMK AO2 PK WND 21029/1529 SLP172 CB ALQDS MOV N P0022 T02500222

More Conditions Fewer Conditions

10-Day Weather Forecast

Almanac

Astronomy

Aug. 30, 2014 Rise Set
Actual Time 6:36 AM CDT 7:25 PM CDT
Civil Twilight 6:11 AM CDT 7:49 PM CDT
Nautical Twilight 5:43 AM CDT 8:18 PM CDT
Astronomical Twilight 5:13 AM CDT 8:47 PM CDT
Moon 11:00 AM CDT 10:23 PM CDT
Length of Visible Light 13h 37m
Length of Day
12h 48m
Tomorrow will be 1m 43s shorter.
Waxing Crescent, 23% of the Moon is Illuminated
Today
Waxing Crescent
Sep 2
First Quarter
Sep 8
Full
Sep 15
Last Quarter
Sep 24
New

Today's Extremes

State Highs State Lows

Community

WunderPhotos

Upload Photos

1,748,557 photos uploaded!

WunderBlogs® & News

Nearby

Air Quality

  Air Quality AQ Index Pollutant
Yesterday Good
OZONE
Yesterday Good
PM2.5
Current Good
PM2.5
Current Good
OZONE
Saturday Good
PM2.5
Saturday Good
OZONE
Sunday Good
PM2.5
Sunday Good
OZONE

Snow Depth

Station Depth Elevation
No new snow has been reported.

Earthquake Activity

City Distance Mag. Time & Date
No recent earthquake activity has been reported nearby.
Minimum magnitude displayed is 2.5.

Coastal Water Temperatures

Place Temperature
New Canal, LA 82.0 °F
Shell Beach, LA 81.0 °F
Bayou Gauche, LA 82.9 °F

Nearby Weather Stations